Flight Number: AVA3096 Duration: 2:15
Departure: Sangster Intl Airport (MKJS) at 05:45 Distance: 858.587 Nm
Arrival: Bogota Eldorado (SKBO) at 08:00 Equipment: B737

Weather Information
Montego Bay / Sangster, Jamaica (MKJS) 18-30N 077-55W 8M Jun 19, 2024 - 10:00 AM EDT / 2024.06.19 1400 UTC
Wind: from the SE (140 degrees) at 5 MPH (4 KT):0
Visibility: greater than 7 mile(s):0
Sky conditions: mostly clear Weather: Cumulonimbus clouds observed Temperature: 86 F (30 C) Heat index: 95.0 F (35.0 C):1 Dew Point: 75 F (24 C) Relative Humidity: 70% Pressure (altimeter): 29.88 in. Hg (1012 hPa)
ob: MKJS 191400Z 14004KT 9999 FEW022CB 30/24 Q1012 cycle: 14
Sunrise: 10:38 Sunset: 23:47 (UTC)

Bogota / Eldorado, Colombia (SKBO) 04-43N 074-09W 2548M Jun 19, 2024 - 10:00 AM EDT / 2024.06.19 1400 UTC
Wind: from the N (010 degrees) at 5 MPH (4 KT):0
Visibility: greater than 7 mile(s):0
Sky conditions: partly cloudy Weather: Towering cumulus clouds observed Temperature: 62 F (17 C) Dew Point: 53 F (12 C) Relative Humidity: 72% Pressure (altimeter): 30.33 in. Hg (1027 hPa)
ob: SKBO 191400Z 01004KT 9999 SCT020TCU 17/12 Q1027 NOSIG RMK TCU/SE cycle: 14
Sunrise: 10:48 Sunset: 23:07 (UTC)

TAF:2024/06/19 12:41 TAF SKBO 191030Z 1912/2012 VRB02KT 9999 SCT020 TEMPO 1912/1914 4000 BR BECMG 1916/1918 28010KT PROB40 TEMPO 1917/1920 TSRA SCT017CB BECMG 2001/2003 VRB02KT TEMPO 2003/2007 DZ BKN017 TX20/1919Z TN10/2010Z

Previous Pireps for this route
Date Flightnr Aircraft Flight time Fuel used Landing rate On time
2018-03-20AVA3096B7372.21130510Yes
(pireps marked green are flown by you)

Route map